createdAt,value
2022-11-30T00:01:21.579Z,18.00
2022-11-30T00:03:49.219Z,20.02
2022-11-30T00:06:23.242Z,18.70
2022-11-30T00:08:58.168Z,18.70
2022-11-30T00:11:27.446Z,19.52
2022-11-30T00:13:54.685Z,18.55
2022-11-30T00:16:22.335Z,19.27
2022-11-30T00:18:50.062Z,17.15
2022-11-30T00:21:17.599Z,18.85
2022-11-30T00:23:46.558Z,18.20
2022-11-30T00:26:16.389Z,17.75
2022-11-30T00:28:45.499Z,18.45
2022-11-30T00:31:14.740Z,19.00
2022-11-30T00:33:42.421Z,19.33
2022-11-30T00:36:18.489Z,18.58
2022-11-30T00:38:46.440Z,19.00
2022-11-30T00:41:13.601Z,19.10
2022-11-30T00:43:40.724Z,16.08
2022-11-30T00:46:09.521Z,18.77
2022-11-30T00:48:37.758Z,17.83
2022-11-30T00:51:05.974Z,20.00
2022-11-30T00:53:32.990Z,18.52
2022-11-30T00:56:00.081Z,19.45
2022-11-30T00:58:27.163Z,18.10
2022-11-30T01:00:54.325Z,19.55
2022-11-30T01:03:21.443Z,19.95
2022-11-30T01:05:48.428Z,18.35
2022-11-30T01:08:15.419Z,19.00
2022-11-30T01:10:43.549Z,19.10
2022-11-30T01:13:12.998Z,19.65
2022-11-30T01:15:44.119Z,20.02
2022-11-30T01:18:11.689Z,19.38
2022-11-30T01:20:43.227Z,19.98
2022-11-30T01:23:11.466Z,19.38
2022-11-30T01:25:38.742Z,19.45
2022-11-30T01:28:06.079Z,20.98
2022-11-30T01:30:33.141Z,20.05
2022-11-30T01:33:06.221Z,19.67
2022-11-30T01:35:33.207Z,22.42
2022-11-30T01:38:00.236Z,21.60
2022-11-30T01:40:27.528Z,20.58
2022-11-30T01:42:54.569Z,20.70
2022-11-30T01:45:21.673Z,21.10
2022-11-30T01:47:52.419Z,22.40
2022-11-30T01:50:26.318Z,21.10
2022-11-30T01:52:56.671Z,19.85
2022-11-30T01:55:32.587Z,20.30
2022-11-30T01:58:14.112Z,19.10
2022-11-30T02:00:44.729Z,19.17
2022-11-30T02:03:17.854Z,21.52
2022-11-30T02:05:45.735Z,20.48
2022-11-30T02:08:12.848Z,19.25
2022-11-30T02:10:43.971Z,20.98
2022-11-30T02:13:25.770Z,20.50
2022-11-30T02:16:06.641Z,20.70
2022-11-30T02:18:47.310Z,20.05
2022-11-30T02:21:17.447Z,18.92
2022-11-30T02:24:09.454Z,20.17
2022-11-30T02:26:42.632Z,19.95
2022-11-30T02:29:27.847Z,20.13
2022-11-30T02:32:12.706Z,18.45
2022-11-30T02:34:42.555Z,18.80
2022-11-30T02:37:12.415Z,18.90
2022-11-30T02:39:39.451Z,21.60
2022-11-30T02:42:15.716Z,19.63
2022-11-30T02:44:47.546Z,19.40
2022-11-30T02:47:20.953Z,18.98
2022-11-30T02:50:09.780Z,19.90
2022-11-30T02:52:36.920Z,19.48
2022-11-30T02:55:09.106Z,20.42
2022-11-30T02:57:36.242Z,19.05
2022-11-30T03:00:07.439Z,20.63
2022-11-30T03:02:34.905Z,21.98
2022-11-30T03:05:01.954Z,20.33
2022-11-30T03:07:28.979Z,19.20
2022-11-30T03:09:56.134Z,19.05
2022-11-30T03:12:23.494Z,22.50
2022-11-30T03:14:50.586Z,19.13
2022-11-30T03:17:17.736Z,21.77
2022-11-30T03:19:44.749Z,20.52
2022-11-30T03:22:11.732Z,19.95
2022-11-30T03:24:38.667Z,21.10
2022-11-30T03:27:05.664Z,19.83
2022-11-30T03:29:32.899Z,19.55
2022-11-30T03:31:59.864Z,21.92
2022-11-30T03:34:27.816Z,21.20
2022-11-30T03:36:55.756Z,19.77
2022-11-30T03:39:24.344Z,20.75
2022-11-30T03:41:51.859Z,21.08
2022-11-30T03:44:18.945Z,18.40
2022-11-30T03:46:46.014Z,20.20
2022-11-30T03:49:13.021Z,20.60
2022-11-30T03:51:39.974Z,18.90
2022-11-30T03:54:06.909Z,21.25
2022-11-30T03:56:33.865Z,20.40
2022-11-30T03:59:00.817Z,19.60
2022-11-30T04:01:28.252Z,21.48
2022-11-30T04:03:55.313Z,18.85
2022-11-30T04:06:22.654Z,18.95
2022-11-30T04:08:50.010Z,19.73
2022-11-30T04:11:17.209Z,19.98
2022-11-30T04:13:44.733Z,21.20
2022-11-30T04:16:12.080Z,20.92
2022-11-30T04:18:39.338Z,20.70
2022-11-30T04:21:08.006Z,20.33
2022-11-30T04:23:38.288Z,20.67
2022-11-30T04:26:07.105Z,19.40
2022-11-30T04:28:34.718Z,20.45
2022-11-30T04:31:02.890Z,20.83
2022-11-30T04:33:30.636Z,18.30
2022-11-30T04:36:01.283Z,20.63
2022-11-30T04:38:29.984Z,20.33
2022-11-30T04:40:57.329Z,19.05
2022-11-30T04:43:25.015Z,19.52
2022-11-30T04:45:52.398Z,19.45
2022-11-30T04:48:20.175Z,20.42
2022-11-30T04:50:47.174Z,19.20
2022-11-30T04:53:14.330Z,20.10
2022-11-30T04:55:41.410Z,17.45
2022-11-30T04:58:08.487Z,19.52
2022-11-30T05:00:36.401Z,20.63
2022-11-30T05:03:03.482Z,19.48
2022-11-30T05:05:30.573Z,20.77
2022-11-30T05:07:59.769Z,19.42
2022-11-30T05:10:28.216Z,21.58
2022-11-30T05:12:56.410Z,22.23
2022-11-30T05:15:23.381Z,21.35
2022-11-30T05:17:50.405Z,21.58
2022-11-30T05:20:17.732Z,21.20
2022-11-30T05:22:44.705Z,19.90
2022-11-30T05:25:11.695Z,18.73
2022-11-30T05:27:38.758Z,20.75
2022-11-30T05:30:07.453Z,20.55
2022-11-30T05:32:35.297Z,20.45
2022-11-30T05:35:02.462Z,20.83
2022-11-30T05:37:29.433Z,20.58
2022-11-30T05:39:56.453Z,21.33
2022-11-30T05:42:23.647Z,20.85
2022-11-30T05:44:50.788Z,19.27
2022-11-30T05:47:18.130Z,19.52
2022-11-30T05:49:45.140Z,21.15
2022-11-30T05:52:12.142Z,20.80
2022-11-30T05:54:39.156Z,21.33
2022-11-30T05:57:06.094Z,21.10
2022-11-30T05:59:33.573Z,22.95
2022-11-30T06:02:00.628Z,20.73
2022-11-30T06:04:27.713Z,21.15
2022-11-30T06:06:56.025Z,23.02
2022-11-30T06:09:23.709Z,22.85
2022-11-30T06:11:51.357Z,19.90
2022-11-30T06:14:18.670Z,20.90
2022-11-30T06:16:45.842Z,20.88
2022-11-30T06:19:12.826Z,20.20
2022-11-30T06:21:39.843Z,21.63
2022-11-30T06:24:07.192Z,20.00
2022-11-30T06:26:34.230Z,23.35
2022-11-30T06:29:01.187Z,18.35
2022-11-30T06:31:28.212Z,19.88
2022-11-30T06:34:00.103Z,20.67
2022-11-30T06:36:32.677Z,19.38
2022-11-30T06:39:01.206Z,23.15
2022-11-30T06:41:28.220Z,21.08
2022-11-30T06:43:55.179Z,21.48
2022-11-30T06:46:22.674Z,20.88
2022-11-30T06:48:51.044Z,20.40
2022-11-30T06:51:19.053Z,19.90
2022-11-30T06:53:47.018Z,22.55
2022-11-30T06:56:14.066Z,22.40
2022-11-30T06:58:41.969Z,21.95
2022-11-30T07:01:11.762Z,20.40
2022-11-30T07:03:40.362Z,21.85
2022-11-30T07:06:09.701Z,22.10
2022-11-30T07:08:37.083Z,20.23
2022-11-30T07:11:04.650Z,20.65
2022-11-30T07:13:31.788Z,21.33
2022-11-30T07:15:58.752Z,21.00
2022-11-30T07:18:31.468Z,21.40
2022-11-30T07:21:03.352Z,19.90
2022-11-30T07:23:55.618Z,19.17
2022-11-30T07:26:23.456Z,20.10
2022-11-30T07:28:55.087Z,21.13
2022-11-30T07:31:31.364Z,20.27
2022-11-30T07:33:59.576Z,18.65
2022-11-30T07:36:28.007Z,20.60
2022-11-30T07:38:54.989Z,20.60
2022-11-30T07:41:22.164Z,21.45
2022-11-30T07:43:49.286Z,21.52
2022-11-30T07:46:17.395Z,21.13
2022-11-30T07:48:45.427Z,22.20
2022-11-30T07:51:15.059Z,21.65
2022-11-30T07:53:42.314Z,22.27
2022-11-30T07:56:13.077Z,22.00
2022-11-30T07:58:41.839Z,21.85
2022-11-30T08:01:11.489Z,19.90
2022-11-30T08:03:38.709Z,18.85
2022-11-30T08:06:12.069Z,19.55
2022-11-30T08:08:41.470Z,20.27
2022-11-30T08:11:10.514Z,19.95
2022-11-30T08:13:38.255Z,19.17
2022-11-30T08:16:14.367Z,19.55
2022-11-30T08:18:42.326Z,20.10
2022-11-30T08:21:11.664Z,19.23
2022-11-30T08:23:44.236Z,19.88
2022-11-30T08:26:16.816Z,17.92
2022-11-30T08:28:45.492Z,20.55
2022-11-30T08:31:15.659Z,19.95
2022-11-30T08:33:43.030Z,18.90
2022-11-30T08:36:11.563Z,20.65
2022-11-30T08:38:39.953Z,19.25
2022-11-30T08:41:07.838Z,19.00
2022-11-30T08:43:35.168Z,18.55
2022-11-30T08:46:21.578Z,17.83
2022-11-30T08:49:07.360Z,17.60
2022-11-30T08:52:08.609Z,17.67
2022-11-30T08:54:27.747Z,18.00
2022-11-30T08:56:55.480Z,19.80
2022-11-30T08:59:22.496Z,19.05
2022-11-30T09:01:49.470Z,18.75
2022-11-30T09:04:16.558Z,17.42
2022-11-30T09:06:43.499Z,16.58
2022-11-30T09:09:10.471Z,18.77
2022-11-30T09:11:37.528Z,17.33
2022-11-30T09:14:05.402Z,18.27
2022-11-30T09:16:32.561Z,17.20
2022-11-30T09:18:59.559Z,15.95
2022-11-30T09:21:26.937Z,17.98
2022-11-30T09:23:56.690Z,17.52
2022-11-30T09:26:25.717Z,16.67
2022-11-30T09:28:54.244Z,19.15
2022-11-30T09:31:24.542Z,18.30
2022-11-30T09:33:52.625Z,17.75
2022-11-30T09:36:21.862Z,17.98
2022-11-30T09:38:49.949Z,18.38
2022-11-30T09:41:28.903Z,19.65
2022-11-30T09:44:10.857Z,16.58
2022-11-30T09:47:01.225Z,16.42
2022-11-30T09:49:32.199Z,16.95
2022-11-30T09:52:04.386Z,15.63
2022-11-30T09:54:39.894Z,15.32
2022-11-30T09:57:19.482Z,18.55
2022-11-30T10:00:00.353Z,15.50
2022-11-30T10:02:31.673Z,16.13
2022-11-30T10:04:59.823Z,14.95
2022-11-30T10:07:26.822Z,15.50
2022-11-30T10:10:37.211Z,15.90
2022-11-30T10:13:17.348Z,14.50
2022-11-30T10:15:57.522Z,14.63
2022-11-30T10:18:43.104Z,13.55
2022-11-30T10:21:31.569Z,14.75
2022-11-30T10:24:07.196Z,13.90
2022-11-30T10:26:38.335Z,16.70
2022-11-30T10:29:18.199Z,14.40
2022-11-30T10:31:49.083Z,14.82
2022-11-30T10:34:25.754Z,13.75
2022-11-30T10:37:11.282Z,12.77
2022-11-30T10:39:51.576Z,13.52
2022-11-30T10:42:26.501Z,13.48
2022-11-30T10:44:59.882Z,14.48
2022-11-30T10:47:34.058Z,13.40
2022-11-30T10:50:01.761Z,14.82
2022-11-30T10:52:38.151Z,12.18
2022-11-30T10:55:27.345Z,13.52
2022-11-30T10:58:32.812Z,13.23
2022-11-30T11:01:10.018Z,13.10
2022-11-30T11:03:38.389Z,12.00
2022-11-30T11:06:23.079Z,12.68
2022-11-30T11:08:50.463Z,13.45
2022-11-30T11:11:57.343Z,13.05
2022-11-30T11:14:26.639Z,12.20
2022-11-30T11:16:57.695Z,12.80
2022-11-30T11:19:34.532Z,12.93
2022-11-30T11:22:16.189Z,12.38
2022-11-30T11:24:43.535Z,12.00
2022-11-30T11:27:29.803Z,11.70
2022-11-30T11:30:27.149Z,11.20
2022-11-30T11:33:02.017Z,12.57
2022-11-30T11:35:34.882Z,11.50
2022-11-30T11:38:02.032Z,11.57
2022-11-30T11:40:29.173Z,11.13
2022-11-30T11:43:00.110Z,11.80
2022-11-30T11:45:35.985Z,11.05
2022-11-30T11:48:12.660Z,11.05
2022-11-30T11:53:44.856Z,11.27
2022-11-30T11:56:26.565Z,11.43
2022-11-30T11:59:17.187Z,10.93
2022-11-30T12:02:07.677Z,10.20
2022-11-30T12:04:51.700Z,10.55
2022-11-30T12:07:39.601Z,10.02
2022-11-30T12:10:52.216Z,10.20
2022-11-30T12:13:22.610Z,10.73
2022-11-30T12:15:55.475Z,10.27
2022-11-30T12:18:31.080Z,10.55
2022-11-30T12:21:16.605Z,11.30
2022-11-30T12:24:01.415Z,10.23
2022-11-30T12:27:06.636Z,10.93
2022-11-30T12:29:52.338Z,10.10
2022-11-30T12:33:00.313Z,12.38
2022-11-30T12:35:37.228Z,10.90
2022-11-30T12:38:13.009Z,11.13
2022-11-30T12:41:07.806Z,10.80
2022-11-30T12:44:04.413Z,10.82
2022-11-30T12:47:05.174Z,10.10
2022-11-30T12:49:32.147Z,13.32
2022-11-30T12:52:44.366Z,11.00
2022-11-30T12:55:26.637Z,11.70
2022-11-30T12:57:56.420Z,11.05
2022-11-30T13:00:29.269Z,11.05
2022-11-30T13:03:23.429Z,11.90
2022-11-30T13:06:05.770Z,12.30
2022-11-30T13:08:51.199Z,10.60
2022-11-30T13:11:24.779Z,10.07
2022-11-30T13:13:56.667Z,10.35
2022-11-30T13:16:25.757Z,10.48
2022-11-30T13:18:59.302Z,10.25
2022-11-30T13:21:41.418Z,10.88
2022-11-30T13:24:29.376Z,9.93
2022-11-30T13:27:16.397Z,10.02
2022-11-30T13:30:21.215Z,9.93
2022-11-30T13:32:57.822Z,9.27
2022-11-30T13:35:28.163Z,10.07
2022-11-30T13:38:34.754Z,8.68
2022-11-30T13:41:04.728Z,10.75
2022-11-30T13:43:45.687Z,9.40
2022-11-30T13:46:25.889Z,8.80
2022-11-30T13:49:31.257Z,9.50
2022-11-30T13:52:21.359Z,9.98
2022-11-30T13:54:48.123Z,10.73
2022-11-30T13:57:30.463Z,10.30
2022-11-30T13:59:59.709Z,9.23
2022-11-30T14:02:32.742Z,11.30
2022-11-30T14:05:17.953Z,8.93
2022-11-30T14:07:48.047Z,8.80
2022-11-30T14:10:33.297Z,10.85
2022-11-30T14:13:24.451Z,11.10
2022-11-30T14:15:55.063Z,8.60
2022-11-30T14:18:24.240Z,8.20
2022-11-30T14:21:13.264Z,9.55
2022-11-30T14:23:40.270Z,8.95
2022-11-30T14:26:22.586Z,10.75
2022-11-30T14:28:52.359Z,9.88
2022-11-30T14:31:25.230Z,9.07
2022-11-30T14:33:55.310Z,10.65
2022-11-30T14:36:26.905Z,10.73
2022-11-30T14:38:54.014Z,11.32
2022-11-30T14:41:24.250Z,10.25
2022-11-30T14:44:13.782Z,8.95
2022-11-30T14:46:41.802Z,9.35
2022-11-30T14:49:19.074Z,10.10
2022-11-30T14:51:59.021Z,9.52
2022-11-30T14:54:48.579Z,9.40
2022-11-30T14:57:28.154Z,10.50
2022-11-30T14:59:56.490Z,9.77
2022-11-30T15:02:31.595Z,9.60
2022-11-30T15:05:00.129Z,14.35
2022-11-30T15:07:28.522Z,11.77
2022-11-30T15:10:05.111Z,14.05
2022-11-30T15:12:33.327Z,15.80
2022-11-30T15:15:12.619Z,11.90
2022-11-30T15:17:54.656Z,12.48
2022-11-30T15:20:55.315Z,14.00
2022-11-30T15:23:22.812Z,12.20
2022-11-30T15:26:09.924Z,12.57
2022-11-30T15:28:41.916Z,11.50
2022-11-30T15:31:16.122Z,10.73
2022-11-30T15:33:46.262Z,10.93
2022-11-30T15:36:31.472Z,11.60
2022-11-30T15:39:03.294Z,12.73
2022-11-30T15:41:32.339Z,12.32
2022-11-30T15:43:59.553Z,12.75
2022-11-30T15:46:32.397Z,11.80
2022-11-30T15:49:12.607Z,14.02
2022-11-30T15:51:42.552Z,13.50
2022-11-30T15:54:09.742Z,12.60
2022-11-30T15:56:36.789Z,13.98
2022-11-30T15:59:14.831Z,12.75
2022-11-30T16:02:02.660Z,13.55
2022-11-30T16:04:58.622Z,14.30
2022-11-30T16:07:35.551Z,14.45
2022-11-30T16:10:13.384Z,13.35
2022-11-30T16:12:42.260Z,14.38
2022-11-30T16:15:27.431Z,13.73
2022-11-30T16:18:16.449Z,14.98
2022-11-30T16:20:45.884Z,13.73
2022-11-30T16:23:15.540Z,13.75
2022-11-30T16:25:44.168Z,15.70
2022-11-30T16:28:13.452Z,15.07
2022-11-30T16:30:41.406Z,13.88
2022-11-30T16:33:19.117Z,15.70
2022-11-30T16:35:59.559Z,15.25
2022-11-30T16:38:28.006Z,17.13
2022-11-30T16:40:56.751Z,18.33
2022-11-30T16:43:26.014Z,16.55
2022-11-30T16:45:53.126Z,18.73
2022-11-30T16:48:20.774Z,20.70
2022-11-30T16:50:48.108Z,21.33
2022-11-30T16:53:16.666Z,18.70
2022-11-30T16:55:44.205Z,17.02
2022-11-30T16:58:11.462Z,18.80
2022-11-30T17:00:40.551Z,18.98
2022-11-30T17:03:23.645Z,20.02
2022-11-30T17:05:50.829Z,18.50
2022-11-30T17:08:18.407Z,18.88
2022-11-30T17:10:46.242Z,17.80
2022-11-30T17:13:15.282Z,17.77
2022-11-30T17:15:44.132Z,19.90
2022-11-30T17:18:12.182Z,19.08
2022-11-30T17:20:40.432Z,23.25
2022-11-30T17:23:08.016Z,19.45
2022-11-30T17:25:35.612Z,21.23
2022-11-30T17:28:02.939Z,21.02
2022-11-30T17:30:30.555Z,19.75
2022-11-30T17:32:57.953Z,20.85
2022-11-30T17:35:25.666Z,26.90
2022-11-30T17:37:54.943Z,22.30
2022-11-30T17:40:22.860Z,20.98
2022-11-30T17:42:50.233Z,22.30
2022-11-30T17:45:19.158Z,24.52
2022-11-30T17:47:46.807Z,25.70
2022-11-30T17:50:14.929Z,21.02
2022-11-30T17:52:44.079Z,20.75
2022-11-30T17:55:11.783Z,23.63
2022-11-30T17:57:39.953Z,24.55
2022-11-30T18:00:08.356Z,22.50
2022-11-30T18:02:37.401Z,22.35
2022-11-30T18:05:07.743Z,24.15
2022-11-30T18:07:35.606Z,23.92
2022-11-30T18:10:03.730Z,24.45
2022-11-30T18:12:31.713Z,23.50
2022-11-30T18:14:59.944Z,22.52
2022-11-30T18:17:27.460Z,21.42
2022-11-30T18:19:55.534Z,22.40
2022-11-30T18:22:23.535Z,22.45
2022-11-30T18:24:53.136Z,20.15
2022-11-30T18:27:20.898Z,19.42
2022-11-30T18:29:48.913Z,22.15
2022-11-30T18:32:16.758Z,22.73
2022-11-30T18:34:49.744Z,21.90
2022-11-30T18:37:20.555Z,22.30
2022-11-30T18:39:48.785Z,21.40
2022-11-30T18:42:18.807Z,21.65
2022-11-30T18:44:48.375Z,21.85
2022-11-30T18:47:17.374Z,23.45
2022-11-30T18:49:44.996Z,23.23
2022-11-30T18:52:12.651Z,22.55
2022-11-30T18:54:42.951Z,22.15
2022-11-30T18:57:11.230Z,22.70
2022-11-30T18:59:40.202Z,23.30
2022-11-30T19:02:10.029Z,21.20
2022-11-30T19:04:39.092Z,21.23
2022-11-30T19:07:07.134Z,22.20
2022-11-30T19:09:35.051Z,22.35
2022-11-30T19:12:02.623Z,22.98
2022-11-30T19:14:30.244Z,21.75
2022-11-30T19:17:00.672Z,21.17
2022-11-30T19:19:31.259Z,20.27
2022-11-30T19:21:59.503Z,19.98
2022-11-30T19:24:27.541Z,20.38
2022-11-30T19:26:55.689Z,20.63
2022-11-30T19:29:27.626Z,23.00
2022-11-30T19:31:55.597Z,21.65
2022-11-30T19:34:23.761Z,19.27
2022-11-30T19:36:52.299Z,20.92
2022-11-30T19:39:22.187Z,22.23
2022-11-30T19:41:49.920Z,22.65
2022-11-30T19:44:19.711Z,22.40
2022-11-30T19:46:48.119Z,25.85
2022-11-30T19:49:16.144Z,23.23
2022-11-30T19:51:44.195Z,24.55
2022-11-30T19:54:12.526Z,30.50
2022-11-30T19:56:42.664Z,39.00
2022-11-30T19:59:10.586Z,42.10
2022-11-30T20:01:39.101Z,40.22
2022-11-30T20:04:07.381Z,30.17
2022-11-30T20:06:38.667Z,25.73
2022-11-30T20:09:08.363Z,20.10
2022-11-30T20:11:36.212Z,19.85
2022-11-30T20:14:04.777Z,20.42
2022-11-30T20:16:32.841Z,20.40
2022-11-30T20:19:11.965Z,20.00
2022-11-30T20:21:43.173Z,19.13
2022-11-30T20:24:12.905Z,20.08
2022-11-30T20:26:44.558Z,19.08
2022-11-30T20:29:15.638Z,20.02
2022-11-30T20:31:46.201Z,19.35
2022-11-30T20:34:14.090Z,19.75
2022-11-30T20:36:42.496Z,18.30
2022-11-30T20:39:12.592Z,17.33
2022-11-30T20:41:40.964Z,21.73
2022-11-30T20:44:11.873Z,22.95
2022-11-30T20:46:40.577Z,23.98
2022-11-30T20:49:21.362Z,18.35
2022-11-30T20:51:49.737Z,19.92
2022-11-30T20:54:18.244Z,18.50
2022-11-30T20:56:50.884Z,18.83
2022-11-30T20:59:22.724Z,19.65
2022-11-30T21:01:51.845Z,19.10
2022-11-30T21:04:22.639Z,20.95
2022-11-30T21:06:50.426Z,18.52
2022-11-30T21:09:19.883Z,20.35
2022-11-30T21:11:49.257Z,20.55
2022-11-30T21:14:18.624Z,20.17
2022-11-30T21:16:46.193Z,18.52
2022-11-30T21:19:15.647Z,20.55
2022-11-30T21:21:42.894Z,21.70
2022-11-30T21:24:12.516Z,20.67
2022-11-30T21:26:42.024Z,20.63
2022-11-30T21:29:15.408Z,19.15
2022-11-30T21:31:43.992Z,20.15
2022-11-30T21:34:11.256Z,20.50
2022-11-30T21:36:38.938Z,18.55
2022-11-30T21:39:07.611Z,20.90
2022-11-30T21:41:39.545Z,18.92
2022-11-30T21:44:08.696Z,17.77
2022-11-30T21:46:35.823Z,16.90
2022-11-30T21:49:03.499Z,19.30
2022-11-30T21:51:32.116Z,18.25
2022-11-30T21:54:01.771Z,18.85
2022-11-30T21:56:34.880Z,21.15
2022-11-30T21:59:04.109Z,20.25
2022-11-30T22:01:34.802Z,18.60
2022-11-30T22:04:03.399Z,19.30
2022-11-30T22:06:31.727Z,18.25
2022-11-30T22:09:03.722Z,19.40
2022-11-30T22:11:31.368Z,17.67
2022-11-30T22:13:58.606Z,17.60
2022-11-30T22:16:30.062Z,17.10
2022-11-30T22:19:01.416Z,18.38
2022-11-30T22:21:30.273Z,18.02
2022-11-30T22:23:58.509Z,18.63
2022-11-30T22:26:27.809Z,18.15
2022-11-30T22:28:57.925Z,19.35
2022-11-30T22:31:28.408Z,18.35
2022-11-30T22:33:56.382Z,17.58
2022-11-30T22:36:26.038Z,18.23
2022-11-30T22:38:57.757Z,20.58
2022-11-30T22:41:25.937Z,21.08
2022-11-30T22:43:53.672Z,21.50
2022-11-30T22:46:24.060Z,20.77
2022-11-30T22:48:51.648Z,18.77
2022-11-30T22:51:22.055Z,16.40
2022-11-30T22:53:50.034Z,18.65
2022-11-30T22:56:28.781Z,17.83
2022-11-30T22:59:00.290Z,19.35
2022-11-30T23:01:32.263Z,18.67
2022-11-30T23:04:08.560Z,17.83
2022-11-30T23:06:37.693Z,17.83
2022-11-30T23:09:06.984Z,20.63
2022-11-30T23:11:34.038Z,18.95
2022-11-30T23:14:05.657Z,17.30
2022-11-30T23:16:32.868Z,19.88
2022-11-30T23:19:00.730Z,17.55
2022-11-30T23:21:34.788Z,17.92
2022-11-30T23:24:09.376Z,17.33
2022-11-30T23:26:38.340Z,18.92
2022-11-30T23:29:08.457Z,18.00
2022-11-30T23:31:38.549Z,18.63
2022-11-30T23:34:08.676Z,17.70
2022-11-30T23:36:36.881Z,18.85
2022-11-30T23:39:06.846Z,19.05
2022-11-30T23:41:34.406Z,17.83
2022-11-30T23:44:02.369Z,20.65
2022-11-30T23:46:29.614Z,17.25
2022-11-30T23:48:57.065Z,18.10
2022-11-30T23:51:24.339Z,17.52
2022-11-30T23:53:51.575Z,18.27
2022-11-30T23:56:20.513Z,18.20
2022-11-30T23:58:47.994Z,18.27
